createdAt,value
2023-05-25T00:02:51.541Z,99223.97
2023-05-25T00:06:37.371Z,99225.66
2023-05-25T00:10:19.899Z,99225.78
2023-05-25T00:14:02.840Z,99223.03
2023-05-25T00:17:48.865Z,99218.66
2023-05-25T00:21:34.207Z,99211.19
2023-05-25T00:25:17.152Z,99213.03
2023-05-25T00:29:02.869Z,99215.13
2023-05-25T00:31:32.675Z,99212.38
2023-05-25T00:35:16.445Z,99201.97
2023-05-25T00:38:59.384Z,99205.56
2023-05-25T00:42:41.877Z,99205.41
2023-05-25T00:46:24.837Z,99212.03
2023-05-25T00:50:07.951Z,99216.78
2023-05-25T00:53:53.323Z,99207.50
2023-05-25T00:57:37.876Z,99207.22
2023-05-25T01:01:21.134Z,99203.53
2023-05-25T01:05:04.320Z,99200.53
2023-05-25T01:08:47.764Z,99191.63
2023-05-25T01:12:31.666Z,99194.75
2023-05-25T01:16:15.324Z,99192.81
2023-05-25T01:20:09.739Z,99183.69
2023-05-25T01:23:54.892Z,99181.75
2023-05-25T01:27:39.543Z,99188.50
2023-05-25T01:31:23.338Z,99185.97
2023-05-25T01:35:06.568Z,99184.00
2023-05-25T01:37:37.972Z,99196.44
2023-05-25T01:41:21.528Z,99184.31
2023-05-25T01:43:49.086Z,99189.84
2023-05-25T01:46:40.391Z,99187.16
2023-05-25T01:49:31.996Z,99192.88
2023-05-25T01:52:31.520Z,99195.13
2023-05-25T01:55:08.848Z,99194.25
2023-05-25T01:57:42.970Z,99187.31
2023-05-25T02:00:13.781Z,99194.72
2023-05-25T02:02:46.037Z,99190.38
2023-05-25T02:05:14.450Z,99190.94
2023-05-25T02:07:41.923Z,99192.03
2023-05-25T02:10:09.942Z,99187.75
2023-05-25T02:12:37.814Z,99184.41
2023-05-25T02:15:06.276Z,99180.56
2023-05-25T02:17:33.729Z,99174.31
2023-05-25T02:20:01.264Z,99178.06
2023-05-25T02:22:29.663Z,99169.97
2023-05-25T02:24:57.419Z,99176.59
2023-05-25T02:27:24.933Z,99177.09
2023-05-25T02:29:53.676Z,99167.47
2023-05-25T02:32:21.359Z,99170.59
2023-05-25T02:34:49.235Z,99176.84
2023-05-25T02:37:17.884Z,99169.09
2023-05-25T02:39:45.074Z,99177.50
2023-05-25T02:42:12.341Z,99169.81
2023-05-25T02:44:39.520Z,99178.53
2023-05-25T02:47:07.573Z,99178.25
2023-05-25T02:49:34.794Z,99185.97
2023-05-25T02:52:02.407Z,99178.94
2023-05-25T02:54:30.379Z,99179.88
2023-05-25T02:56:58.612Z,99182.84
2023-05-25T02:59:25.977Z,99185.38
2023-05-25T03:01:53.179Z,99188.78
2023-05-25T03:04:20.989Z,99182.59
2023-05-25T03:06:49.264Z,99185.19
2023-05-25T03:09:19.169Z,99188.22
2023-05-25T03:11:49.708Z,99196.09
2023-05-25T03:14:21.468Z,99197.44
2023-05-25T03:16:55.742Z,99192.41
2023-05-25T03:19:24.517Z,99196.78
2023-05-25T03:21:52.114Z,99190.84
2023-05-25T03:24:31.370Z,99196.31
2023-05-25T03:27:01.990Z,99194.06
2023-05-25T03:29:29.235Z,99188.84
2023-05-25T03:31:56.562Z,99195.09
2023-05-25T03:34:30.642Z,99195.31
2023-05-25T03:36:58.058Z,99189.56
2023-05-25T03:39:26.132Z,99183.91
2023-05-25T03:41:55.444Z,99180.28
2023-05-25T03:44:23.490Z,99175.41
2023-05-25T03:46:50.866Z,99182.97
2023-05-25T03:49:18.079Z,99179.25
2023-05-25T03:51:46.121Z,99187.66
2023-05-25T03:54:14.672Z,99186.63
2023-05-25T03:56:42.555Z,99192.47
2023-05-25T03:59:09.857Z,99195.22
2023-05-25T04:01:38.974Z,99202.66
2023-05-25T04:04:07.340Z,99207.97
2023-05-25T04:06:54.113Z,99205.75
2023-05-25T04:10:37.352Z,99214.91
2023-05-25T04:14:21.683Z,99220.66
2023-05-25T04:16:50.084Z,99218.25
2023-05-25T04:20:33.082Z,99223.91
2023-05-25T04:23:01.268Z,99218.97
2023-05-25T04:25:42.284Z,99222.03
2023-05-25T04:29:27.000Z,99218.53
2023-05-25T04:33:29.723Z,99217.28
2023-05-25T04:37:18.139Z,99221.38
2023-05-25T04:41:02.208Z,99223.66
2023-05-25T04:43:30.401Z,99223.91
2023-05-25T04:47:14.120Z,99232.19
2023-05-25T04:50:57.404Z,99229.97
2023-05-25T04:53:25.125Z,99230.28
2023-05-25T04:57:08.748Z,99230.41
2023-05-25T05:00:52.713Z,99243.09
2023-05-25T05:03:20.625Z,99253.56
2023-05-25T05:05:48.500Z,99245.19
2023-05-25T05:09:38.616Z,99234.31
2023-05-25T05:12:09.995Z,99243.66
2023-05-25T05:14:43.794Z,99253.78
2023-05-25T05:17:11.990Z,99254.13
2023-05-25T05:19:39.452Z,99256.16
2023-05-25T05:22:10.061Z,99263.03
2023-05-25T05:24:38.849Z,99272.03
2023-05-25T05:27:06.613Z,99263.47
2023-05-25T05:29:43.129Z,99267.56
2023-05-25T05:32:10.629Z,99266.94
2023-05-25T05:34:38.227Z,99273.06
2023-05-25T05:37:11.744Z,99279.25
2023-05-25T05:39:39.507Z,99285.00
2023-05-25T05:42:08.216Z,99287.97
2023-05-25T05:44:36.268Z,99287.31
2023-05-25T05:47:03.719Z,99285.78
2023-05-25T05:49:32.210Z,99287.78
2023-05-25T05:52:01.575Z,99278.00
2023-05-25T05:54:29.950Z,99292.63
2023-05-25T05:57:01.757Z,99292.22
2023-05-25T05:59:29.348Z,99296.88
2023-05-25T06:01:56.743Z,99306.84
2023-05-25T06:04:29.073Z,99302.22
2023-05-25T06:06:59.174Z,99312.28
2023-05-25T06:09:26.658Z,99306.78
2023-05-25T06:11:58.174Z,99315.63
2023-05-25T06:14:28.121Z,99315.28
2023-05-25T06:17:00.014Z,99310.38
2023-05-25T06:19:28.328Z,99309.84
2023-05-25T06:22:00.148Z,99298.06
2023-05-25T06:24:27.951Z,99314.41
2023-05-25T06:26:55.730Z,99307.19
2023-05-25T06:29:23.308Z,99313.97
2023-05-25T06:31:51.356Z,99307.78
2023-05-25T06:34:19.548Z,99315.88
2023-05-25T06:36:47.765Z,99311.91
2023-05-25T06:39:15.548Z,99318.91
2023-05-25T06:41:44.185Z,99321.13
2023-05-25T06:44:11.727Z,99311.78
2023-05-25T06:46:46.904Z,99311.97
2023-05-25T06:49:15.795Z,99308.34
2023-05-25T06:51:43.630Z,99307.34
2023-05-25T06:54:12.123Z,99305.06
2023-05-25T06:56:39.578Z,99312.44
2023-05-25T06:59:06.924Z,99306.44
2023-05-25T07:01:34.230Z,99313.47
2023-05-25T07:04:07.316Z,99307.47
2023-05-25T07:06:35.423Z,99320.06
2023-05-25T07:09:02.982Z,99327.50
2023-05-25T07:11:30.920Z,99332.13
2023-05-25T07:13:58.523Z,99330.31
2023-05-25T07:16:26.689Z,99327.50
2023-05-25T07:18:54.190Z,99329.53
2023-05-25T07:21:21.570Z,99336.13
2023-05-25T07:23:49.148Z,99331.56
2023-05-25T07:26:16.967Z,99342.72
2023-05-25T07:28:44.155Z,99342.47
2023-05-25T07:31:12.003Z,99345.34
2023-05-25T07:33:39.400Z,99344.19
2023-05-25T07:36:07.338Z,99342.94
2023-05-25T07:38:34.532Z,99343.72
2023-05-25T07:41:01.732Z,99341.47
2023-05-25T07:43:29.459Z,99355.34
2023-05-25T07:45:56.823Z,99355.50
2023-05-25T07:48:24.154Z,99355.69
2023-05-25T07:50:51.455Z,99342.97
2023-05-25T07:53:18.628Z,99351.13
2023-05-25T07:55:46.182Z,99345.06
2023-05-25T07:58:13.679Z,99344.59
2023-05-25T08:00:40.946Z,99342.16
2023-05-25T08:03:08.576Z,99334.97
2023-05-25T08:05:36.985Z,99341.75
2023-05-25T08:08:04.422Z,99331.31
2023-05-25T08:10:32.424Z,99329.84
2023-05-25T08:12:59.940Z,99326.34
2023-05-25T08:15:27.310Z,99340.81
2023-05-25T08:17:56.351Z,99337.78
2023-05-25T08:20:25.116Z,99330.06
2023-05-25T08:22:55.462Z,99342.06
2023-05-25T08:25:22.817Z,99335.97
2023-05-25T08:27:50.556Z,99326.66
2023-05-25T08:30:17.829Z,99332.47
2023-05-25T08:32:45.447Z,99334.25
2023-05-25T08:35:14.426Z,99344.78
2023-05-25T08:37:43.605Z,99335.72
2023-05-25T08:40:19.265Z,99342.31
2023-05-25T08:42:46.804Z,99347.66
2023-05-25T08:45:26.538Z,99342.06
2023-05-25T08:48:10.415Z,99334.91
2023-05-25T08:50:41.386Z,99344.31
2023-05-25T08:53:11.997Z,99350.88
2023-05-25T08:55:43.050Z,99350.28
2023-05-25T08:58:25.666Z,99354.81
2023-05-25T09:01:04.390Z,99349.56
2023-05-25T09:03:33.788Z,99344.72
2023-05-25T09:06:02.126Z,99340.56
2023-05-25T09:08:30.530Z,99339.13
2023-05-25T09:10:58.555Z,99337.00
2023-05-25T09:13:26.671Z,99333.81
2023-05-25T09:15:54.405Z,99339.44
2023-05-25T09:18:21.843Z,99340.44
2023-05-25T09:20:49.800Z,99350.94
2023-05-25T09:23:18.008Z,99347.75
2023-05-25T09:25:50.586Z,99360.41
2023-05-25T09:28:27.232Z,99350.03
2023-05-25T09:30:56.353Z,99347.59
2023-05-25T09:33:23.660Z,99349.09
2023-05-25T09:35:52.092Z,99360.69
2023-05-25T09:38:20.278Z,99339.75
2023-05-25T09:40:47.953Z,99342.38
2023-05-25T09:43:22.319Z,99354.44
2023-05-25T09:45:56.206Z,99354.94
2023-05-25T09:48:24.295Z,99343.97
2023-05-25T09:50:52.022Z,99349.97
2023-05-25T09:53:21.193Z,99352.06
2023-05-25T09:55:54.187Z,99349.63
2023-05-25T09:58:26.247Z,99349.91
2023-05-25T10:00:55.284Z,99343.09
2023-05-25T10:03:22.834Z,99332.50
2023-05-25T10:05:52.214Z,99341.47
2023-05-25T10:08:21.889Z,99336.88
2023-05-25T10:10:50.799Z,99344.09
2023-05-25T10:13:25.844Z,99342.00
2023-05-25T10:15:56.978Z,99339.97
2023-05-25T10:18:29.036Z,99343.91
2023-05-25T10:21:05.410Z,99336.78
2023-05-25T10:23:48.041Z,99349.53
2023-05-25T10:26:22.828Z,99348.31
2023-05-25T10:29:01.510Z,99338.66
2023-05-25T10:31:29.778Z,99348.31
2023-05-25T10:34:00.231Z,99345.56
2023-05-25T10:36:28.577Z,99344.69
2023-05-25T10:38:56.685Z,99349.69
2023-05-25T10:41:24.017Z,99337.38
2023-05-25T10:43:53.417Z,99327.69
2023-05-25T10:46:22.143Z,99340.00
2023-05-25T10:48:52.019Z,99334.72
2023-05-25T10:51:22.723Z,99330.84
2023-05-25T10:54:04.444Z,99326.25
2023-05-25T10:56:31.751Z,99335.69
2023-05-25T10:58:59.224Z,99322.63
2023-05-25T11:01:27.297Z,99328.97
2023-05-25T11:04:11.758Z,99334.81
2023-05-25T11:06:44.459Z,99338.69
2023-05-25T11:09:35.885Z,99331.38
2023-05-25T11:12:04.809Z,99323.28
2023-05-25T11:14:37.116Z,99325.00
2023-05-25T11:17:19.262Z,99329.31
2023-05-25T11:19:50.756Z,99322.50
2023-05-25T11:22:37.993Z,99321.25
2023-05-25T11:25:43.656Z,99325.78
2023-05-25T11:28:12.033Z,99316.25
2023-05-25T11:30:42.626Z,99322.66
2023-05-25T11:33:10.125Z,99310.13
2023-05-25T11:35:37.927Z,99316.94
2023-05-25T11:38:08.822Z,99324.91
2023-05-25T11:40:39.265Z,99323.88
2023-05-25T11:43:09.985Z,99310.75
2023-05-25T11:45:38.456Z,99312.47
2023-05-25T11:48:07.095Z,99315.78
2023-05-25T11:50:34.428Z,99319.19
2023-05-25T11:53:07.436Z,99305.63
2023-05-25T11:55:35.403Z,99315.28
2023-05-25T11:58:03.439Z,99316.09
2023-05-25T12:00:35.579Z,99311.25
2023-05-25T12:03:03.600Z,99311.94
2023-05-25T12:05:41.506Z,99302.59
2023-05-25T12:08:09.240Z,99302.69
2023-05-25T12:10:52.718Z,99303.06
2023-05-25T12:13:20.720Z,99317.34
2023-05-25T12:15:48.653Z,99312.75
2023-05-25T12:18:16.304Z,99303.47
2023-05-25T12:20:43.995Z,99309.53
2023-05-25T12:23:17.896Z,99307.38
2023-05-25T12:25:51.030Z,99305.72
2023-05-25T12:28:22.722Z,99298.28
2023-05-25T12:30:53.482Z,99299.47
2023-05-25T12:33:21.942Z,99292.88
2023-05-25T12:35:50.627Z,99295.38
2023-05-25T12:38:21.884Z,99296.84
2023-05-25T12:41:08.285Z,99303.16
2023-05-25T12:43:42.871Z,99307.44
2023-05-25T12:46:10.172Z,99306.13
2023-05-25T12:48:37.952Z,99308.91
2023-05-25T12:51:06.120Z,99300.69
2023-05-25T12:53:54.398Z,99302.72
2023-05-25T12:56:22.735Z,99301.19
2023-05-25T12:58:50.016Z,99306.91
2023-05-25T13:01:17.995Z,99311.09
2023-05-25T13:03:45.449Z,99311.50
2023-05-25T13:06:13.094Z,99299.81
2023-05-25T13:08:40.456Z,99305.06
2023-05-25T13:11:08.242Z,99286.91
2023-05-25T13:13:35.896Z,99301.13
2023-05-25T13:16:03.350Z,99302.34
2023-05-25T13:18:31.261Z,99291.81
2023-05-25T13:20:59.365Z,99291.69
2023-05-25T13:23:27.287Z,99283.75
2023-05-25T13:25:54.895Z,99287.06
2023-05-25T13:28:22.267Z,99280.44
2023-05-25T13:30:49.530Z,99273.78
2023-05-25T13:33:17.739Z,99279.38
2023-05-25T13:36:07.856Z,99268.03
2023-05-25T13:38:40.288Z,99277.28
2023-05-25T13:41:07.790Z,99278.56
2023-05-25T13:43:35.092Z,99276.03
2023-05-25T13:46:02.476Z,99284.34
2023-05-25T13:48:30.135Z,99287.84
2023-05-25T13:50:57.562Z,99293.03
2023-05-25T13:53:25.026Z,99281.41
2023-05-25T13:55:52.698Z,99281.84
2023-05-25T13:58:20.675Z,99276.56
2023-05-25T14:00:48.828Z,99279.72
2023-05-25T14:03:16.695Z,99277.63
2023-05-25T14:05:44.842Z,99277.69
2023-05-25T14:08:12.754Z,99273.69
2023-05-25T14:10:41.009Z,99268.78
2023-05-25T14:13:08.525Z,99272.63
2023-05-25T14:15:36.546Z,99273.81
2023-05-25T14:18:05.254Z,99270.56
2023-05-25T14:20:37.223Z,99269.75
2023-05-25T14:23:05.510Z,99265.75
2023-05-25T14:25:33.254Z,99268.47
2023-05-25T14:28:01.239Z,99266.56
2023-05-25T14:30:29.129Z,99274.97
2023-05-25T14:32:56.631Z,99271.13
2023-05-25T14:35:24.308Z,99266.25
2023-05-25T14:37:51.889Z,99263.22
2023-05-25T14:40:19.746Z,99259.13
2023-05-25T14:42:47.013Z,99263.78
2023-05-25T14:45:16.008Z,99268.50
2023-05-25T14:47:43.770Z,99276.97
2023-05-25T14:50:11.117Z,99271.94
2023-05-25T14:52:39.097Z,99272.31
2023-05-25T14:55:09.032Z,99269.72
2023-05-25T14:57:36.896Z,99284.75
2023-05-25T15:00:05.284Z,99273.97
2023-05-25T15:02:33.772Z,99275.13
2023-05-25T15:05:01.922Z,99275.03
2023-05-25T15:07:29.973Z,99269.38
2023-05-25T15:09:58.365Z,99269.34
2023-05-25T15:12:25.710Z,99273.47
2023-05-25T15:14:53.438Z,99264.59
2023-05-25T15:17:20.708Z,99266.97
2023-05-25T15:19:47.978Z,99267.59
2023-05-25T15:22:15.554Z,99270.44
2023-05-25T15:24:44.564Z,99263.41
2023-05-25T15:27:12.024Z,99263.81
2023-05-25T15:29:39.372Z,99258.88
2023-05-25T15:32:09.336Z,99266.63
2023-05-25T15:34:36.752Z,99263.69
2023-05-25T15:37:04.898Z,99258.25
2023-05-25T15:39:32.277Z,99250.47
2023-05-25T15:41:59.578Z,99256.53
2023-05-25T15:44:26.843Z,99249.16
2023-05-25T15:46:54.177Z,99253.28
2023-05-25T15:49:21.484Z,99247.00
2023-05-25T15:51:49.276Z,99247.75
2023-05-25T15:54:18.096Z,99262.09
2023-05-25T15:56:45.536Z,99254.13
2023-05-25T15:59:12.964Z,99251.31
2023-05-25T16:01:40.685Z,99249.22
2023-05-25T16:04:11.749Z,99256.16
2023-05-25T16:06:39.393Z,99253.38
2023-05-25T16:09:06.800Z,99242.94
2023-05-25T16:11:34.679Z,99245.78
2023-05-25T16:14:02.177Z,99255.91
2023-05-25T16:16:29.750Z,99244.25
2023-05-25T16:18:57.297Z,99245.13
2023-05-25T16:21:24.723Z,99257.78
2023-05-25T16:23:52.333Z,99252.72
2023-05-25T16:26:19.788Z,99256.22
2023-05-25T16:28:47.027Z,99258.00
2023-05-25T16:31:15.643Z,99255.50
2023-05-25T16:33:43.910Z,99250.53
2023-05-25T16:36:13.624Z,99255.50
2023-05-25T16:38:41.712Z,99246.59
2023-05-25T16:41:09.423Z,99247.66
2023-05-25T16:43:37.129Z,99247.72
2023-05-25T16:46:04.851Z,99250.09
2023-05-25T16:48:32.240Z,99245.38
2023-05-25T16:51:05.525Z,99251.09
2023-05-25T16:53:33.349Z,99238.09
2023-05-25T16:56:00.924Z,99247.91
2023-05-25T16:58:28.498Z,99247.78
2023-05-25T17:00:56.117Z,99244.66
2023-05-25T17:03:23.626Z,99247.25
2023-05-25T17:05:53.815Z,99239.50
2023-05-25T17:08:21.431Z,99234.97
2023-05-25T17:10:50.747Z,99240.81
2023-05-25T17:13:17.977Z,99243.09
2023-05-25T17:15:45.398Z,99236.13
2023-05-25T17:18:12.872Z,99240.06
2023-05-25T17:20:40.461Z,99240.47
2023-05-25T17:23:08.165Z,99242.59
2023-05-25T17:25:42.453Z,99244.66
2023-05-25T17:28:10.532Z,99239.44
2023-05-25T17:30:38.254Z,99240.31
2023-05-25T17:33:05.654Z,99246.03
2023-05-25T17:35:33.271Z,99245.91
2023-05-25T17:38:00.804Z,99244.44
2023-05-25T17:40:28.279Z,99242.94
2023-05-25T17:42:55.523Z,99247.84
2023-05-25T17:45:22.836Z,99252.66
2023-05-25T17:47:50.240Z,99264.47
2023-05-25T17:50:18.687Z,99254.50
2023-05-25T17:52:46.747Z,99263.56
2023-05-25T17:55:14.680Z,99261.41
2023-05-25T17:57:42.604Z,99258.59
2023-05-25T18:00:11.286Z,99260.03
2023-05-25T18:02:41.441Z,99264.66
2023-05-25T18:05:09.295Z,99269.53
2023-05-25T18:07:36.845Z,99265.38
2023-05-25T18:10:04.839Z,99269.28
2023-05-25T18:12:32.483Z,99266.38
2023-05-25T18:15:00.515Z,99264.78
2023-05-25T18:17:28.020Z,99268.56
2023-05-25T18:19:55.686Z,99263.78
2023-05-25T18:22:23.306Z,99267.72
2023-05-25T18:24:51.300Z,99268.53
2023-05-25T18:27:19.054Z,99268.72
2023-05-25T18:29:46.462Z,99275.25
2023-05-25T18:32:13.774Z,99271.81
2023-05-25T18:34:41.381Z,99273.78
2023-05-25T18:37:08.675Z,99274.69
2023-05-25T18:39:36.125Z,99279.31
2023-05-25T18:42:03.827Z,99279.25
2023-05-25T18:44:31.257Z,99285.00
2023-05-25T18:46:59.035Z,99288.63
2023-05-25T18:49:27.204Z,99286.31
2023-05-25T18:51:54.750Z,99288.13
2023-05-25T18:54:22.762Z,99285.13
2023-05-25T18:56:51.484Z,99287.56
2023-05-25T18:59:19.426Z,99283.84
2023-05-25T19:01:47.308Z,99287.25
2023-05-25T19:04:15.169Z,99289.63
2023-05-25T19:06:42.924Z,99295.56
2023-05-25T19:09:10.218Z,99293.44
2023-05-25T19:11:37.884Z,99292.69
2023-05-25T19:14:05.865Z,99292.94
2023-05-25T19:16:33.396Z,99304.56
2023-05-25T19:19:01.043Z,99308.00
2023-05-25T19:21:28.344Z,99308.41
2023-05-25T19:23:57.990Z,99306.72
2023-05-25T19:26:25.733Z,99315.13
2023-05-25T19:28:53.129Z,99322.84
2023-05-25T19:31:21.470Z,99316.97
2023-05-25T19:33:52.767Z,99312.25
2023-05-25T19:36:20.337Z,99319.34
2023-05-25T19:38:48.029Z,99331.47
2023-05-25T19:41:16.094Z,99324.13
2023-05-25T19:43:43.378Z,99325.91
2023-05-25T19:46:10.740Z,99329.31
2023-05-25T19:48:40.092Z,99324.00
2023-05-25T19:51:07.726Z,99329.84
2023-05-25T19:53:36.151Z,99325.69
2023-05-25T19:56:03.632Z,99327.28
2023-05-25T19:58:31.633Z,99334.03
2023-05-25T20:00:59.374Z,99337.63
2023-05-25T20:03:27.600Z,99337.28
2023-05-25T20:05:56.408Z,99336.16
2023-05-25T20:08:34.056Z,99339.91
2023-05-25T20:11:04.989Z,99341.50
2023-05-25T20:13:32.777Z,99346.47
2023-05-25T20:16:00.057Z,99346.41
2023-05-25T20:18:27.924Z,99341.50
2023-05-25T20:20:55.195Z,99349.53
2023-05-25T20:23:22.989Z,99352.66
2023-05-25T20:25:50.733Z,99348.31
2023-05-25T20:28:18.603Z,99343.13
2023-05-25T20:30:46.060Z,99352.75
2023-05-25T20:34:02.639Z,99357.63
2023-05-25T20:36:09.145Z,99357.47
2023-05-25T20:38:36.412Z,99354.25
2023-05-25T20:41:03.750Z,99362.72
2023-05-25T20:43:31.013Z,99366.38
2023-05-25T20:45:58.302Z,99370.19
2023-05-25T20:48:25.560Z,99369.66
2023-05-25T20:50:53.042Z,99366.69
2023-05-25T20:53:20.763Z,99367.03
2023-05-25T20:55:48.009Z,99368.84
2023-05-25T20:58:15.352Z,99370.50
2023-05-25T21:00:42.703Z,99371.47
2023-05-25T21:03:10.107Z,99372.03
2023-05-25T21:05:38.148Z,99370.38
2023-05-25T21:08:06.031Z,99364.00
2023-05-25T21:10:33.411Z,99367.13
2023-05-25T21:13:00.710Z,99369.63
2023-05-25T21:15:28.162Z,99376.75
2023-05-25T21:17:55.731Z,99377.59
2023-05-25T21:20:23.172Z,99377.91
2023-05-25T21:22:50.365Z,99376.38
2023-05-25T21:25:23.570Z,99382.13
2023-05-25T21:27:50.956Z,99378.16
2023-05-25T21:30:19.423Z,99374.03
2023-05-25T21:32:47.486Z,99381.75
2023-05-25T21:35:16.135Z,99382.91
2023-05-25T21:37:44.722Z,99378.97
2023-05-25T21:40:12.682Z,99376.75
2023-05-25T21:42:39.963Z,99387.06
2023-05-25T21:45:08.004Z,99382.13
2023-05-25T21:47:35.186Z,99388.88
2023-05-25T21:50:02.500Z,99386.03
2023-05-25T21:52:29.710Z,99400.09
2023-05-25T21:54:57.571Z,99407.19
2023-05-25T21:57:24.806Z,99399.53
2023-05-25T21:59:52.192Z,99399.84
2023-05-25T22:02:20.380Z,99401.25
2023-05-25T22:04:48.255Z,99399.56
2023-05-25T22:07:15.803Z,99405.25
2023-05-25T22:09:43.144Z,99396.22
2023-05-25T22:12:13.776Z,99409.16
2023-05-25T22:14:41.321Z,99401.84
2023-05-25T22:17:08.838Z,99410.84
2023-05-25T22:19:36.350Z,99410.00
2023-05-25T22:22:04.049Z,99403.81
2023-05-25T22:24:32.101Z,99411.13
2023-05-25T22:26:59.480Z,99419.81
2023-05-25T22:29:26.740Z,99412.25
2023-05-25T22:31:53.951Z,99407.19
2023-05-25T22:34:21.612Z,99418.16
2023-05-25T22:36:48.917Z,99411.97
2023-05-25T22:39:16.448Z,99413.94
2023-05-25T22:41:43.758Z,99416.47
2023-05-25T22:44:10.999Z,99421.50
2023-05-25T22:46:38.438Z,99415.59
2023-05-25T22:49:05.862Z,99416.34
2023-05-25T22:51:33.115Z,99419.91
2023-05-25T22:54:00.981Z,99420.78
2023-05-25T22:56:28.700Z,99426.22
2023-05-25T22:58:56.195Z,99423.38
2023-05-25T23:01:24.178Z,99415.84
2023-05-25T23:03:51.675Z,99419.44
2023-05-25T23:06:20.121Z,99421.34
2023-05-25T23:08:47.576Z,99423.25
2023-05-25T23:11:15.052Z,99427.94
2023-05-25T23:13:44.170Z,99426.19
2023-05-25T23:16:15.258Z,99419.22
2023-05-25T23:18:42.985Z,99421.09
2023-05-25T23:21:10.993Z,99418.63
2023-05-25T23:23:38.483Z,99430.00
2023-05-25T23:26:06.073Z,99424.25
2023-05-25T23:28:33.392Z,99424.88
2023-05-25T23:31:00.907Z,99418.31
2023-05-25T23:33:29.276Z,99425.22
2023-05-25T23:35:56.672Z,99429.94
2023-05-25T23:38:24.257Z,99428.88
2023-05-25T23:40:51.481Z,99427.94
2023-05-25T23:43:18.855Z,99429.97
2023-05-25T23:45:46.771Z,99430.84
2023-05-25T23:48:14.581Z,99435.97
2023-05-25T23:50:41.889Z,99428.41
2023-05-25T23:53:09.318Z,99438.28
2023-05-25T23:55:36.676Z,99437.16
2023-05-25T23:58:04.463Z,99439.91
